Time;durP1;ratioP1;P1;durP2;ratioP2;P2;SDS_P1;SDS_P2;PMS_P1;PMS_P2;Temp;Humidity;BMP_temperature;BMP_pressure;BME280_temperature;BME280_humidity;BME280_pressure;Samples;Min_cycle;Max_cycle;Signal;HPM_P1;HPM_P2
2023/07/06 00:00:30;;;;;;;7.97;5.32;;;21.10;99.90;;;;;;4969828;28;20042;-78
2023/07/06 00:02:56;;;;;;;10.20;5.32;;;21.20;99.90;;;;;;4969998;28;20030;-79
2023/07/06 00:05:22;;;;;;;9.20;5.25;;;21.30;99.90;;;;;;4970152;28;20044;-79
2023/07/06 00:07:48;;;;;;;10.13;5.63;;;21.40;99.90;;;;;;4969705;28;20061;-79
2023/07/06 00:10:13;;;;;;;12.68;5.25;;;21.50;99.90;;;;;;4969438;28;20027;-78
2023/07/06 00:12:39;;;;;;;8.70;5.22;;;21.60;99.90;;;;;;4987458;28;20808;-79
2023/07/06 00:15:05;;;;;;;10.23;5.57;;;21.60;99.90;;;;;;4986771;28;20087;-79
2023/07/06 00:17:31;;;;;;;8.77;5.18;;;21.60;99.90;;;;;;4987026;28;20026;-78
2023/07/06 00:19:57;;;;;;;9.73;5.60;;;21.60;99.90;;;;;;4969595;28;20046;-78
2023/07/06 00:22:23;;;;;;;9.20;5.38;;;21.60;99.90;;;;;;4969665;28;20079;-79
2023/07/06 00:24:49;;;;;;;8.18;5.22;;;21.70;99.90;;;;;;4969677;28;20065;-78
2023/07/06 00:27:18;;;;;;;11.20;5.38;;;21.70;99.90;;;;;;4969922;28;20058;-79
2023/07/06 00:29:56;;;;;;;11.27;5.10;;;21.70;99.90;;;;;;4972058;28;20030;-79
2023/07/06 00:32:28;;;;;;;10.00;5.53;;;21.60;99.90;;;;;;4972988;28;20109;-80
2023/07/06 00:34:58;;;;;;;7.30;4.53;;;21.50;99.90;;;;;;4972893;28;20030;-80
2023/07/06 00:37:24;;;;;;;5.57;3.97;;;21.60;99.90;;;;;;4972868;28;20030;-80
2023/07/06 00:39:51;;;;;;;11.25;4.72;;;21.70;99.90;;;;;;4990438;28;20069;-80
2023/07/06 00:42:19;;;;;;;7.20;4.38;;;21.80;99.90;;;;;;4972765;28;20030;-80
2023/07/06 00:44:50;;;;;;;8.50;4.50;;;21.80;99.90;;;;;;4972986;28;20487;-80
2023/07/06 00:47:35;;;;;;;9.10;4.00;;;21.70;99.90;;;;;;4972719;28;20037;-80
2023/07/06 00:50:11;;;;;;;6.72;3.42;;;21.70;99.90;;;;;;4972263;28;20031;-79
2023/07/06 00:52:40;;;;;;;10.75;3.95;;;21.70;99.90;;;;;;4989977;28;20033;-78
2023/07/06 00:55:08;;;;;;;5.32;3.22;;;21.60;99.90;;;;;;4990217;28;20026;-78
2023/07/06 00:57:35;;;;;;;4.47;3.08;;;21.60;99.90;;;;;;4989992;28;20536;-78
2023/07/06 01:00:04;;;;;;;5.50;3.72;;;21.50;99.90;;;;;;4972448;28;20514;-78
2023/07/06 01:02:30;;;;;;;6.25;3.38;;;21.50;99.90;;;;;;4989805;28;20510;-77
2023/07/06 01:04:57;;;;;;;8.05;3.08;;;21.40;99.90;;;;;;4989892;28;20109;-79
2023/07/06 01:07:26;;;;;;;7.22;3.28;;;21.40;99.90;;;;;;4972499;28;20364;-78
2023/07/06 01:09:52;;;;;;;5.43;3.00;;;21.30;99.90;;;;;;4989726;28;20034;-78
2023/07/06 01:12:20;;;;;;;8.13;3.13;;;21.30;99.90;;;;;;4971799;28;20215;-77
2023/07/06 01:14:45;;;;;;;12.60;4.25;;;21.20;99.90;;;;;;4989756;28;20395;-78
2023/07/06 01:17:30;;;;;;;7.15;3.50;;;21.10;99.90;;;;;;4990093;28;20031;-77
2023/07/06 01:20:13;;;;;;;5.63;2.95;;;21.00;99.90;;;;;;4989965;28;20433;-77
2023/07/06 01:23:17;;;;;;;5.82;3.30;;;21.00;99.90;;;;;;4972105;28;20157;-78
2023/07/06 01:25:48;;;;;;;4.68;2.88;;;20.90;99.90;;;;;;4971930;28;20053;-78
2023/07/06 01:28:26;;;;;;;5.93;3.42;;;20.80;99.90;;;;;;4972062;28;20117;-77
2023/07/06 01:31:17;;;;;;;6.18;3.47;;;20.80;99.90;;;;;;4971940;28;20031;-77
2023/07/06 01:33:56;;;;;;;5.60;3.20;;;20.70;99.90;;;;;;4989224;28;20117;-77
2023/07/06 01:36:43;;;;;;;8.52;3.22;;;20.70;99.90;;;;;;4971729;28;20532;-77
2023/07/06 01:39:26;;;;;;;5.60;3.80;;;20.60;99.90;;;;;;4971724;28;20077;-77
2023/07/06 01:42:12;;;;;;;5.05;2.92;;;20.60;99.90;;;;;;4971090;28;20038;-77
2023/07/06 01:44:40;;;;;;;4.55;2.88;;;20.70;99.90;;;;;;4971844;28;20129;-78
2023/07/06 01:47:06;;;;;;;4.88;2.95;;;20.60;99.90;;;;;;4971890;28;20030;-78
2023/07/06 01:49:33;;;;;;;8.23;3.70;;;20.60;99.90;;;;;;4989626;28;20028;-78
2023/07/06 01:51:59;;;;;;;8.32;3.92;;;20.50;99.90;;;;;;4971690;28;20502;-80
2023/07/06 01:54:36;;;;;;;6.75;3.60;;;20.40;99.90;;;;;;4971830;28;20037;-79
2023/07/06 01:57:15;;;;;;;7.60;3.85;;;20.40;99.90;;;;;;4988868;28;20033;-80
2023/07/06 01:59:46;;;;;;;10.73;4.95;;;20.30;99.90;;;;;;4971595;28;20042;-81
2023/07/06 02:02:13;;;;;;;10.38;3.80;;;20.30;99.90;;;;;;4971684;28;20027;-80
2023/07/06 02:04:43;;;;;;;9.48;3.58;;;20.30;99.90;;;;;;4971781;28;20081;-80
2023/07/06 02:07:11;;;;;;;6.40;3.67;;;20.20;99.90;;;;;;4971631;28;20143;-80
2023/07/06 02:09:44;;;;;;;8.48;3.58;;;20.20;99.90;;;;;;4989233;28;20034;-80
2023/07/06 02:12:12;;;;;;;9.02;4.43;;;20.10;99.90;;;;;;4971872;28;20403;-80
2023/07/06 02:14:42;;;;;;;13.38;4.53;;;20.10;99.90;;;;;;4971625;28;20034;-81
2023/07/06 02:17:09;;;;;;;7.57;4.32;;;20.00;99.90;;;;;;4972008;28;20392;-80
2023/07/06 02:19:36;;;;;;;9.55;4.22;;;19.90;99.90;;;;;;4988734;28;20030;-80
2023/07/06 02:22:03;;;;;;;8.38;5.40;;;19.90;99.90;;;;;;4988222;28;20030;-80
2023/07/06 02:24:30;;;;;;;6.20;4.10;;;19.90;99.90;;;;;;4971072;28;20022;-80
2023/07/06 02:26:56;;;;;;;7.07;4.80;;;19.80;99.90;;;;;;4971266;28;20554;-80
2023/07/06 02:29:22;;;;;;;6.93;4.30;;;19.80;99.90;;;;;;4988648;28;20110;-80
2023/07/06 02:31:48;;;;;;;6.38;4.20;;;19.80;99.90;;;;;;4971417;28;20030;-80
2023/07/06 02:34:14;;;;;;;7.07;4.50;;;19.70;99.90;;;;;;4971198;28;20030;-81
2023/07/06 02:36:41;;;;;;;9.15;4.38;;;19.70;99.90;;;;;;4971145;28;20035;-80
2023/07/06 02:39:06;;;;;;;11.52;4.53;;;19.70;99.90;;;;;;4970984;28;20188;-80
2023/07/06 02:41:33;;;;;;;7.40;4.68;;;19.70;99.90;;;;;;4971068;28;20125;-80
2023/07/06 02:43:58;;;;;;;9.05;5.63;;;19.70;99.90;;;;;;4970955;28;20505;-80
2023/07/06 02:46:24;;;;;;;7.88;4.97;;;19.70;99.90;;;;;;4971233;28;20034;-80
2023/07/06 02:48:52;;;;;;;7.82;4.97;;;19.70;99.90;;;;;;4988599;28;20060;-80
2023/07/06 02:51:18;;;;;;;10.02;6.03;;;19.70;99.90;;;;;;4970908;28;20026;-80
2023/07/06 02:53:45;;;;;;;10.35;5.53;;;19.70;99.90;;;;;;4971480;28;20516;-80
2023/07/06 02:56:10;;;;;;;8.93;4.80;;;19.70;99.90;;;;;;4970989;28;20030;-80
2023/07/06 02:58:36;;;;;;;9.90;4.32;;;19.70;99.90;;;;;;4971329;28;20503;-80
2023/07/06 03:01:03;;;;;;;9.48;5.13;;;19.60;99.90;;;;;;4971777;28;20121;-78
2023/07/06 03:03:29;;;;;;;10.05;5.95;;;19.60;99.90;;;;;;4971759;28;20031;-80
2023/07/06 03:05:55;;;;;;;10.55;4.28;;;19.50;99.90;;;;;;4988202;28;20034;-82
2023/07/06 03:08:21;;;;;;;8.02;4.53;;;19.50;99.90;;;;;;4988432;28;20030;-80
2023/07/06 03:10:47;;;;;;;14.98;5.97;;;19.50;99.90;;;;;;4988385;28;20057;-80
2023/07/06 03:13:13;;;;;;;7.65;4.95;;;19.60;99.90;;;;;;4970663;28;20084;-81
2023/07/06 03:15:42;;;;;;;8.48;4.60;;;19.60;99.90;;;;;;4970628;28;20027;-80
2023/07/06 03:18:08;;;;;;;8.90;4.28;;;19.60;99.90;;;;;;4988115;28;20031;-80
2023/07/06 03:20:37;;;;;;;7.38;4.47;;;19.70;99.90;;;;;;4970516;28;20509;-80
2023/07/06 03:23:04;;;;;;;7.78;4.65;;;19.80;99.90;;;;;;4970449;28;20470;-80
2023/07/06 03:25:30;;;;;;;11.18;4.68;;;19.80;99.90;;;;;;4970598;28;20057;-79
2023/07/06 03:27:56;;;;;;;7.70;4.43;;;19.90;99.90;;;;;;4970543;28;20034;-80
2023/07/06 03:30:25;;;;;;;5.95;4.45;;;20.00;99.90;;;;;;4970672;28;20026;-80
2023/07/06 03:32:54;;;;;;;7.20;4.00;;;20.00;99.90;;;;;;4970617;28;20026;-80
2023/07/06 03:35:22;;;;;;;8.40;4.68;;;20.00;99.90;;;;;;4970698;28;20455;-80
2023/07/06 03:37:48;;;;;;;12.07;4.40;;;20.10;99.90;;;;;;4959908;28;20134;-81
2023/07/06 03:40:14;;;;;;;8.82;4.03;;;20.20;99.90;;;;;;4947680;28;20031;-80
2023/07/06 03:42:44;;;;;;;7.43;4.30;;;20.20;99.90;;;;;;4948082;28;20032;-80
2023/07/06 03:45:12;;;;;;;7.03;4.03;;;20.20;99.90;;;;;;4949303;28;20300;-80
2023/07/06 03:47:38;;;;;;;9.10;4.20;;;20.30;99.90;;;;;;4948009;28;20028;-81
2023/07/06 03:50:08;;;;;;;6.38;3.72;;;20.30;99.90;;;;;;4948143;29;20020;-81
2023/07/06 03:52:36;;;;;;;9.27;3.75;;;20.30;99.90;;;;;;4947864;28;20031;-81
2023/07/06 03:55:03;;;;;;;6.40;3.85;;;20.40;99.90;;;;;;4947687;28;20031;-80
2023/07/06 03:57:30;;;;;;;10.27;4.28;;;20.40;99.90;;;;;;4947684;29;20027;-80
2023/07/06 03:59:56;;;;;;;10.00;4.85;;;20.50;99.90;;;;;;4947915;29;20046;-80
2023/07/06 04:02:22;;;;;;;14.43;3.90;;;20.60;99.90;;;;;;4947312;28;20126;-80
2023/07/06 04:04:48;;;;;;;9.70;4.80;;;20.70;99.90;;;;;;4946988;28;20118;-80
2023/07/06 04:07:14;;;;;;;6.70;3.67;;;20.90;99.90;;;;;;4947319;29;20119;-80
2023/07/06 04:09:40;;;;;;;10.20;4.13;;;21.10;99.90;;;;;;4947590;28;20085;-80
2023/07/06 04:12:07;;;;;;;6.97;3.95;;;21.40;99.90;;;;;;4948812;29;20043;-81
2023/07/06 04:14:34;;;;;;;5.65;3.63;;;21.70;99.90;;;;;;4947115;28;20047;-81
2023/07/06 04:17:00;;;;;;;6.55;3.58;;;21.90;99.90;;;;;;4947266;28;20027;-81
2023/07/06 04:19:25;;;;;;;5.05;3.53;;;22.10;99.90;;;;;;4948697;28;20035;-81
2023/07/06 04:21:52;;;;;;;8.80;4.00;;;22.20;99.90;;;;;;4947410;28;20108;-81
2023/07/06 04:24:18;;;;;;;5.07;3.58;;;22.20;99.90;;;;;;4948486;28;20034;-80
2023/07/06 04:26:47;;;;;;;6.40;4.00;;;22.30;99.90;;;;;;4947326;28;20031;-81
2023/07/06 04:29:14;;;;;;;5.07;3.30;;;22.30;99.90;;;;;;4948711;28;20514;-80
2023/07/06 04:31:40;;;;;;;8.23;3.47;;;22.40;99.90;;;;;;4947340;29;20039;-80
2023/07/06 04:34:07;;;;;;;7.75;4.15;;;22.50;99.90;;;;;;4963511;28;20038;-81
2023/07/06 04:36:32;;;;;;;6.57;4.00;;;22.60;99.90;;;;;;4947125;29;20036;-80
2023/07/06 04:38:59;;;;;;;5.25;4.05;;;22.60;99.90;;;;;;4946932;28;20043;-80
2023/07/06 04:41:26;;;;;;;8.25;3.95;;;22.70;99.90;;;;;;4947091;28;20092;-81
2023/07/06 04:43:52;;;;;;;7.05;4.40;;;22.70;99.90;;;;;;4947202;28;20054;-80
2023/07/06 04:46:20;;;;;;;16.40;4.55;;;22.70;99.90;;;;;;4948084;29;20479;-81
2023/07/06 04:48:47;;;;;;;6.03;3.58;;;22.80;99.90;;;;;;4947111;29;20066;-80
2023/07/06 04:51:12;;;;;;;7.57;4.18;;;22.80;99.90;;;;;;4948155;28;20105;-80
2023/07/06 04:53:38;;;;;;;10.20;4.15;;;22.90;99.90;;;;;;4948140;28;20491;-81
2023/07/06 04:56:05;;;;;;;7.55;3.85;;;23.00;99.90;;;;;;4946927;28;20592;-81
2023/07/06 04:58:31;;;;;;;7.78;4.50;;;22.90;99.90;;;;;;4947209;28;20039;-81
2023/07/06 05:00:57;;;;;;;10.73;4.07;;;22.80;99.90;;;;;;4948124;29;20039;-81
2023/07/06 05:03:23;;;;;;;6.72;3.70;;;22.70;99.90;;;;;;4946993;28;20027;-81
2023/07/06 05:05:48;;;;;;;8.45;4.03;;;22.70;99.90;;;;;;4946879;29;20024;-81
2023/07/06 05:08:19;;;;;;;10.02;3.97;;;22.80;99.90;;;;;;4946758;28;20034;-81
2023/07/06 05:10:49;;;;;;;8.20;3.42;;;22.90;99.90;;;;;;4946914;29;20400;-81
2023/07/06 05:13:15;;;;;;;9.82;4.20;;;22.90;99.90;;;;;;4946796;28;20023;-81
2023/07/06 05:15:41;;;;;;;8.25;5.03;;;23.00;99.90;;;;;;4948992;28;20039;-80
2023/07/06 05:18:07;;;;;;;7.57;4.75;;;23.10;99.90;;;;;;4949706;28;20020;-80
2023/07/06 05:20:33;;;;;;;36.28;6.45;;;23.30;99.90;;;;;;4951315;28;20035;-81
2023/07/06 05:22:59;;;;;;;26.27;6.03;;;23.50;99.90;;;;;;4951196;29;20073;-82
2023/07/06 05:25:26;;;;;;;17.77;5.75;;;23.80;99.90;;;;;;4949671;29;20039;-81
2023/07/06 05:27:52;;;;;;;12.65;4.90;;;24.00;99.90;;;;;;4949805;28;20030;-81
2023/07/06 05:30:18;;;;;;;8.02;5.13;;;24.20;99.90;;;;;;4949718;29;20035;-81
2023/07/06 05:32:44;;;;;;;6.90;4.45;;;24.30;99.90;;;;;;4949567;29;20028;-80
2023/07/06 05:35:10;;;;;;;9.10;5.28;;;24.50;99.90;;;;;;4949531;28;20034;-81
2023/07/06 05:37:36;;;;;;;7.60;4.68;;;24.70;99.90;;;;;;4961470;28;20054;-82
2023/07/06 05:40:04;;;;;;;12.13;5.43;;;25.00;99.90;;;;;;4971930;28;20066;-81
2023/07/06 05:42:31;;;;;;;6.72;4.88;;;25.20;99.90;;;;;;4972072;28;20048;-81
2023/07/06 05:44:57;;;;;;;8.15;5.05;;;25.40;99.90;;;;;;4971932;28;20026;-81
2023/07/06 05:47:22;;;;;;;7.90;4.30;;;25.50;99.90;;;;;;4972096;28;20084;-81
2023/07/06 05:49:48;;;;;;;7.60;4.45;;;25.40;99.90;;;;;;4971856;28;20030;-81
2023/07/06 05:52:14;;;;;;;8.05;4.25;;;25.30;99.90;;;;;;4971875;28;20406;-81
2023/07/06 05:54:40;;;;;;;7.43;3.97;;;25.20;99.90;;;;;;4989297;28;20101;-81
2023/07/06 05:57:08;;;;;;;10.40;5.05;;;25.20;99.90;;;;;;4971666;28;20037;-81
2023/07/06 05:59:34;;;;;;;14.43;4.68;;;25.20;99.90;;;;;;4988991;28;20487;-80
2023/07/06 06:01:59;;;;;;;8.73;4.95;;;25.10;99.90;;;;;;4971463;28;20113;-81
2023/07/06 06:04:25;;;;;;;11.50;4.88;;;24.90;99.90;;;;;;4971705;28;20121;-81
2023/07/06 06:06:54;;;;;;;8.55;4.63;;;24.90;99.90;;;;;;4971670;28;20030;-81
2023/07/06 06:09:24;;;;;;;8.13;4.55;;;24.80;99.90;;;;;;4971643;28;20107;-81
2023/07/06 06:11:50;;;;;;;8.30;5.57;;;24.90;99.90;;;;;;4971584;28;20379;-81
2023/07/06 06:14:16;;;;;;;10.40;4.53;;;24.90;99.90;;;;;;4971233;28;20030;-80
2023/07/06 06:16:42;;;;;;;11.02;4.30;;;24.90;99.90;;;;;;4971532;28;20402;-81
2023/07/06 06:19:08;;;;;;;8.57;4.85;;;25.10;99.90;;;;;;4971388;28;20046;-81
2023/07/06 06:21:34;;;;;;;7.70;4.93;;;25.20;99.90;;;;;;4971499;28;20072;-81
2023/07/06 06:24:02;;;;;;;12.63;4.80;;;25.40;99.90;;;;;;4971431;28;20058;-82
2023/07/06 06:26:29;;;;;;;6.55;4.50;;;25.60;99.90;;;;;;4970910;28;20034;-81
2023/07/06 06:28:57;;;;;;;8.65;5.47;;;25.70;99.90;;;;;;4971570;28;20030;-81
2023/07/06 06:31:24;;;;;;;7.60;4.43;;;25.70;99.90;;;;;;4989209;28;20106;-81
2023/07/06 06:33:50;;;;;;;10.02;5.05;;;25.60;99.90;;;;;;4989233;28;20136;-81
2023/07/06 06:36:17;;;;;;;10.20;4.85;;;25.50;99.90;;;;;;4971248;28;20121;-82
2023/07/06 06:38:43;;;;;;;5.93;4.20;;;25.50;99.90;;;;;;4971213;28;20472;-80
2023/07/06 06:41:10;;;;;;;13.93;4.18;;;25.40;99.90;;;;;;4971199;28;20644;-81
2023/07/06 06:43:39;;;;;;;6.18;3.92;;;25.30;99.90;;;;;;4971325;28;20034;-81
2023/07/06 06:46:06;;;;;;;8.70;3.97;;;25.30;99.90;;;;;;4988468;28;20263;-81
2023/07/06 06:48:33;;;;;;;10.57;5.38;;;25.50;99.90;;;;;;4988633;28;20067;-81
2023/07/06 06:50:59;;;;;;;5.60;3.95;;;25.80;98.90;;;;;;4971021;28;20022;-81
2023/07/06 06:53:26;;;;;;;7.72;4.32;;;25.90;97.80;;;;;;4988317;28;20035;-81
2023/07/06 06:55:52;;;;;;;10.55;4.60;;;25.80;98.40;;;;;;4970660;28;20041;-81
2023/07/06 06:58:20;;;;;;;10.40;4.57;;;25.70;99.30;;;;;;4988225;28;20075;-81
2023/07/06 07:01:05;;;;;;;7.43;4.60;;;25.50;99.90;;;;;;4971020;28;20061;-80
2023/07/06 07:03:31;;;;;;;8.10;4.63;;;25.30;99.90;;;;;;4970814;28;20022;-79
2023/07/06 07:06:04;;;;;;;16.77;5.00;;;25.00;99.90;;;;;;4970550;28;20029;-80
2023/07/06 07:08:30;;;;;;;6.47;4.28;;;24.70;99.90;;;;;;4988091;28;20031;-80
2023/07/06 07:10:57;;;;;;;5.15;3.25;;;24.30;99.90;;;;;;4988062;28;20095;-80
2023/07/06 07:13:25;;;;;;;13.43;4.03;;;23.80;99.90;;;;;;4988235;28;20030;-81
2023/07/06 07:15:51;;;;;;;10.80;3.55;;;23.20;99.90;;;;;;4988040;28;20032;-81
2023/07/06 07:18:18;;;;;;;7.30;3.20;;;22.70;99.90;;;;;;4970667;28;20034;-81
2023/07/06 07:20:43;;;;;;;8.23;3.75;;;22.20;99.90;;;;;;4970409;28;20117;-80
2023/07/06 07:23:10;;;;;;;13.57;4.65;;;21.70;99.90;;;;;;4970311;28;20125;-80
2023/07/06 07:28:23;;;;;;;16.63;5.28;;;21.00;99.90;;;;;;4987645;28;20033;-77
2023/07/06 07:30:59;;;;;;;24.42;5.47;;;20.70;99.90;;;;;;4987657;28;20499;-78
2023/07/06 07:33:27;;;;;;;11.73;6.17;;;20.40;99.90;;;;;;4987839;28;20064;-78
2023/07/06 07:35:53;;;;;;;18.30;6.32;;;20.10;99.90;;;;;;4987579;28;20034;-78
2023/07/06 07:38:19;;;;;;;18.45;5.50;;;19.90;99.90;;;;;;4986367;28;20515;-77
2023/07/06 07:40:59;;;;;;;28.10;6.55;;;19.70;99.90;;;;;;4970042;28;20039;-77
2023/07/06 07:43:27;;;;;;;15.23;6.13;;;19.60;99.90;;;;;;4987629;28;20037;-76
2023/07/06 07:46:00;;;;;;;22.90;7.45;;;19.50;99.90;;;;;;4987499;28;20023;-77
2023/07/06 07:48:27;;;;;;;20.30;6.00;;;19.40;99.90;;;;;;4987571;28;20109;-76
2023/07/06 07:50:56;;;;;;;14.07;5.13;;;19.40;99.90;;;;;;4969946;28;20095;-77
2023/07/06 07:53:26;;;;;;;10.93;4.43;;;19.30;99.90;;;;;;4987620;28;20364;-77
2023/07/06 07:55:54;;;;;;;17.58;5.70;;;19.30;99.90;;;;;;4987366;28;20019;-76
2023/07/06 07:58:22;;;;;;;20.23;4.85;;;19.30;99.90;;;;;;4987308;28;20026;-77
2023/07/06 08:00:58;;;;;;;9.77;5.15;;;19.30;99.90;;;;;;4969687;28;20058;-76
2023/07/06 08:03:24;;;;;;;18.85;5.40;;;19.20;99.90;;;;;;4987335;28;20031;-78
2023/07/06 08:05:59;;;;;;;15.98;4.78;;;19.10;99.90;;;;;;4987110;28;20091;-77
2023/07/06 08:08:25;;;;;;;15.48;5.88;;;19.10;99.90;;;;;;4987120;28;20105;-78
2023/07/06 08:10:55;;;;;;;13.43;4.95;;;19.10;99.90;;;;;;4987113;28;20097;-78
2023/07/06 08:13:22;;;;;;;15.15;5.60;;;19.10;99.90;;;;;;4987276;28;20026;-76
2023/07/06 08:15:48;;;;;;;12.90;4.72;;;19.00;99.90;;;;;;4986961;28;20026;-76
2023/07/06 08:18:15;;;;;;;11.90;4.55;;;19.00;99.90;;;;;;4987012;28;20480;-77
2023/07/06 08:20:43;;;;;;;17.63;5.72;;;19.00;99.90;;;;;;4969574;28;20041;-77
2023/07/06 08:23:11;;;;;;;12.18;5.25;;;19.00;99.90;;;;;;4987079;28;20064;-77
2023/07/06 08:25:38;;;;;;;12.55;4.65;;;19.00;99.90;;;;;;4969482;28;20026;-76
2023/07/06 08:28:09;;;;;;;10.93;4.85;;;19.00;99.90;;;;;;4969394;28;20058;-77
2023/07/06 08:30:37;;;;;;;10.25;4.90;;;19.00;99.90;;;;;;4986963;28;20022;-77
2023/07/06 08:33:04;;;;;;;9.68;3.88;;;18.90;99.90;;;;;;4969451;28;20087;-76
2023/07/06 08:35:30;;;;;;;7.78;3.47;;;18.90;99.90;;;;;;4986766;28;20054;-77
2023/07/06 08:37:57;;;;;;;9.27;4.25;;;18.80;99.90;;;;;;4986792;28;20114;-77
2023/07/06 08:40:28;;;;;;;8.63;3.92;;;18.80;99.90;;;;;;4969501;28;20482;-76
2023/07/06 08:42:56;;;;;;;6.78;3.75;;;18.80;99.90;;;;;;4986736;28;20033;-76
2023/07/06 08:45:38;;;;;;;9.75;3.95;;;18.80;99.90;;;;;;4986715;28;20050;-77
2023/07/06 08:48:06;;;;;;;8.10;3.88;;;18.90;99.90;;;;;;4969154;28;20049;-77
2023/07/06 08:50:33;;;;;;;5.97;3.55;;;19.00;99.90;;;;;;4971687;28;20407;-77
2023/07/06 08:53:00;;;;;;;7.53;4.40;;;19.00;99.90;;;;;;4989896;28;20410;-78
2023/07/06 08:55:30;;;;;;;16.17;4.25;;;19.00;99.90;;;;;;4990165;28;20072;-78
2023/07/06 08:57:56;;;;;;;7.95;4.30;;;19.00;99.90;;;;;;4990134;28;20160;-77
2023/07/06 09:00:27;;;;;;;7.15;4.30;;;19.10;99.90;;;;;;4972388;28;20026;-77
2023/07/06 09:02:56;;;;;;;6.25;4.20;;;19.10;99.90;;;;;;4972711;28;20030;-77
2023/07/06 09:05:22;;;;;;;6.38;3.95;;;19.10;99.90;;;;;;4989699;28;20033;-76
2023/07/06 09:07:48;;;;;;;9.75;4.63;;;19.20;99.90;;;;;;4989809;28;20026;-76
2023/07/06 09:10:20;;;;;;;6.30;3.95;;;19.10;99.90;;;;;;4972425;28;20030;-77
2023/07/06 09:12:46;;;;;;;7.50;4.53;;;19.20;99.90;;;;;;4989880;28;20030;-77
2023/07/06 09:15:16;;;;;;;11.18;4.50;;;19.30;99.90;;;;;;4972373;28;20057;-78
2023/07/06 09:17:52;;;;;;;10.50;4.80;;;19.40;99.90;;;;;;4989675;28;20097;-77
2023/07/06 09:20:20;;;;;;;;;;;19.50;99.90;;;;;;4989907;28;20057;-78
2023/07/06 09:22:48;;;;;;;8.27;3.88;;;19.60;99.90;;;;;;4989693;28;19918;-78
2023/07/06 09:25:37;;;;;;;9.10;3.67;;;19.80;99.90;;;;;;4989724;28;20061;-77
2023/07/06 09:28:07;;;;;;;5.57;3.45;;;19.90;99.90;;;;;;4989575;28;20031;-78
2023/07/06 09:30:36;;;;;;;16.33;3.78;;;20.20;99.90;;;;;;4972297;28;20023;-78
2023/07/06 09:33:26;;;;;;;15.27;8.95;;;20.30;99.90;;;;;;4972248;28;20034;-78
2023/07/06 09:35:56;;;;;;;14.77;11.15;;;20.50;99.90;;;;;;4989295;28;20092;-78
2023/07/06 09:38:25;;;;;;;8.55;5.97;;;20.70;99.90;;;;;;4971876;28;20575;-78
2023/07/06 09:40:52;;;;;;;7.00;3.90;;;20.90;99.90;;;;;;4971887;28;20091;-78
2023/07/06 09:43:27;;;;;;;5.65;3.50;;;21.10;99.90;;;;;;4972122;28;20117;-78
2023/07/06 09:45:54;;;;;;;6.72;2.97;;;21.30;99.90;;;;;;4971892;28;20375;-78
2023/07/06 09:48:37;;;;;;;6.28;3.05;;;21.40;99.90;;;;;;4989185;28;20080;-78
2023/07/06 09:51:08;;;;;;;6.57;3.28;;;21.40;99.90;;;;;;4971869;28;20064;-78
2023/07/06 09:53:48;;;;;;;5.70;2.80;;;21.60;99.90;;;;;;4989321;28;20030;-79
2023/07/06 09:56:15;;;;;;;3.90;2.60;;;21.80;99.90;;;;;;4971569;28;20402;-78
2023/07/06 09:58:42;;;;;;;7.20;2.92;;;22.00;99.90;;;;;;4972037;28;20029;-78
2023/07/06 10:01:42;;;;;;;3.72;2.70;;;22.20;99.90;;;;;;4988774;28;20042;-79
2023/07/06 10:04:32;;;;;;;6.25;2.70;;;22.50;99.90;;;;;;4972081;28;20023;-77
2023/07/06 10:07:15;;;;;;;3.65;2.50;;;22.90;99.90;;;;;;4971967;28;20057;-78
2023/07/06 10:09:46;;;;;;;7.00;2.45;;;23.30;99.90;;;;;;4971464;28;20031;-78
2023/07/06 10:12:21;;;;;;;5.38;2.20;;;23.80;99.90;;;;;;4971597;28;20117;-78
2023/07/06 10:14:50;;;;;;;4.72;2.20;;;24.20;99.90;;;;;;4971420;28;20305;-79
2023/07/06 10:17:37;;;;;;;4.00;2.30;;;24.50;99.90;;;;;;4989012;28;20030;-79
2023/07/06 10:20:29;;;;;;;;;;;25.00;99.90;;;;;;4971647;28;20046;-79
2023/07/06 10:23:09;;;;;;;4.10;2.50;;;25.40;99.90;;;;;;4979627;28;19910;-78
2023/07/06 10:26:07;;;;;;;3.50;2.58;;;25.70;99.90;;;;;;4971555;28;20065;-79
2023/07/06 10:28:40;;;;;;;3.65;2.10;;;26.10;99.90;;;;;;4971532;28;20050;-79
2023/07/06 10:31:11;;;;;;;4.28;2.50;;;26.40;94.70;;;;;;4988690;28;20031;-80
2023/07/06 10:33:54;;;;;;;3.85;2.35;;;26.30;97.50;;;;;;4988802;28;20050;-79
2023/07/06 10:36:25;;;;;;;3.60;2.40;;;26.20;94.10;;;;;;4988602;28;20705;-79
2023/07/06 10:38:52;;;;;;;3.42;2.08;;;26.00;96.00;;;;;;4988688;28;20054;-80
2023/07/06 10:41:21;;;;;;;2.70;1.90;;;26.00;91.50;;;;;;4988595;28;20042;-79
2023/07/06 10:43:49;;;;;;;4.95;2.40;;;26.10;91.80;;;;;;4971172;28;20080;-80
2023/07/06 10:46:34;;;;;;;2.70;2.03;;;26.30;95.40;;;;;;4970901;28;20030;-80
2023/07/06 10:49:21;;;;;;;5.03;1.60;;;26.50;95.20;;;;;;4971174;28;20114;-79
2023/07/06 10:51:52;;;;;;;2.63;1.48;;;26.70;93.70;;;;;;4970998;28;20403;-80
2023/07/06 10:54:21;;;;;;;2.40;1.35;;;26.60;85.20;;;;;;4988295;28;20035;-80
2023/07/06 10:57:03;;;;;;;2.17;1.30;;;26.50;87.50;;;;;;4988501;28;20045;-79
2023/07/06 10:59:39;;;;;;;4.20;2.13;;;26.50;90.10;;;;;;4988384;28;20506;-80
2023/07/06 11:02:25;;;;;;;5.85;2.58;;;26.40;89.70;;;;;;4988137;28;20371;-80
2023/07/06 11:04:55;;;;;;;;;;;26.50;92.20;;;;;;4971137;28;20399;-80
2023/07/06 11:07:38;;;;;;;4.45;2.90;;;26.60;91.00;;;;;;4970896;28;19916;-80
2023/07/06 11:10:22;;;;;;;3.90;2.47;;;26.60;92.40;;;;;;4970622;28;20031;-80
2023/07/06 11:12:53;;;;;;;3.17;2.30;;;26.50;93.60;;;;;;4988172;28;20050;-79
2023/07/06 11:15:23;;;;;;;3.22;2.42;;;26.60;94.20;;;;;;4970597;28;20041;-79
2023/07/06 11:17:53;;;;;;;4.63;2.70;;;26.60;93.50;;;;;;4970514;28;20487;-80
2023/07/06 11:20:28;;;;;;;4.30;2.55;;;26.60;92.90;;;;;;4987889;28;20038;-79
2023/07/06 11:23:02;;;;;;;3.88;2.20;;;26.60;91.70;;;;;;4987880;28;20076;-79
2023/07/06 11:25:29;;;;;;;3.97;2.53;;;26.70;91.40;;;;;;4987802;28;20022;-80
2023/07/06 11:28:09;;;;;;;4.50;2.40;;;26.60;90.80;;;;;;4970657;28;20057;-79
2023/07/06 11:31:01;;;;;;;2.88;1.98;;;26.50;90.40;;;;;;4970446;28;20562;-79
2023/07/06 11:33:41;;;;;;;7.45;2.08;;;26.50;87.50;;;;;;4970111;28;20034;-79
2023/07/06 11:36:52;;;;;;;6.45;2.15;;;26.70;90.20;;;;;;4987594;28;20514;-80
2023/07/06 11:39:38;;;;;;;2.85;2.38;;;26.90;90.00;;;;;;5007373;28;20049;-80
2023/07/06 11:42:33;;;;;;;3.10;2.00;;;27.00;89.10;;;;;;4949108;28;20059;-79
2023/07/06 11:45:03;;;;;;;4.28;2.47;;;27.20;88.50;;;;;;4947447;28;20047;-80
2023/07/06 11:47:34;;;;;;;3.78;2.47;;;27.40;92.00;;;;;;4947657;28;20093;-80
2023/07/06 11:50:03;;;;;;;3.00;2.20;;;27.50;91.20;;;;;;4947580;28;20383;-80
2023/07/06 11:52:35;;;;;;;4.97;2.13;;;27.60;89.20;;;;;;4948982;28;20111;-80
2023/07/06 11:55:06;;;;;;;3.78;1.77;;;27.50;87.30;;;;;;4947567;28;20020;-79
2023/07/06 11:57:44;;;;;;;3.85;2.17;;;27.50;85.90;;;;;;4947710;28;20077;-79
2023/07/06 12:00:48;;;;;;;2.70;2.20;;;27.30;88.80;;;;;;4947632;28;20079;-80
2023/07/06 12:03:09;;;;;;;4.57;2.45;;;27.10;87.90;;;;;;4948327;29;20040;-80
2023/07/06 12:05:39;;;;;;;4.25;2.70;;;27.00;90.30;;;;;;4947636;28;20039;-80
2023/07/06 12:08:16;;;;;;;2.38;1.67;;;26.90;90.90;;;;;;4947279;28;20096;-79
2023/07/06 12:10:45;;;;;;;2.85;2.35;;;26.90;91.30;;;;;;4947630;28;20120;-80
2023/07/06 12:13:27;;;;;;;4.60;2.95;;;27.00;90.90;;;;;;4947305;28;20043;-79
2023/07/06 12:16:27;;;;;;;3.33;2.10;;;27.20;90.30;;;;;;4947424;28;20518;-79
2023/07/06 12:19:13;;;;;;;4.45;2.38;;;27.40;88.70;;;;;;4949113;28;20134;-80
2023/07/06 12:21:51;;;;;;;4.78;2.88;;;27.50;84.60;;;;;;4946910;28;20415;-80
2023/07/06 12:24:22;;;;;;;3.08;2.38;;;27.40;85.30;;;;;;4947789;28;20062;-79
2023/07/06 12:26:55;;;;;;;3.75;2.70;;;27.50;87.20;;;;;;4951780;28;20152;-80
2023/07/06 12:29:27;;;;;;;3.00;1.60;;;27.40;87.50;;;;;;4950635;28;20059;-79
2023/07/06 12:31:57;;;;;;;6.55;2.25;;;27.60;87.50;;;;;;4950625;28;20028;-79
2023/07/06 12:34:31;;;;;;;3.92;2.50;;;27.40;83.90;;;;;;4950445;28;20864;-79
2023/07/06 12:37:00;;;;;;;4.22;1.90;;;27.10;87.30;;;;;;4952039;28;20084;-79
2023/07/06 12:39:27;;;;;;;3.35;1.95;;;26.80;86.50;;;;;;4990471;28;20704;-79
2023/07/06 12:41:54;;;;;;;4.40;2.45;;;26.60;89.30;;;;;;4990583;28;20563;-79
2023/07/06 12:44:22;;;;;;;5.75;2.17;;;26.40;90.80;;;;;;4990041;28;20084;-79
2023/07/06 12:46:53;;;;;;;4.38;2.00;;;26.40;90.80;;;;;;4973305;28;20038;-79
2023/07/06 12:49:22;;;;;;;3.67;1.98;;;26.40;91.30;;;;;;4990268;28;20026;-79
2023/07/06 12:51:54;;;;;;;3.47;2.03;;;26.40;92.00;;;;;;4990201;28;20019;-80
2023/07/06 12:54:25;;;;;;;5.22;2.38;;;26.50;92.60;;;;;;4972801;28;20041;-79
2023/07/06 12:57:05;;;;;;;3.55;2.40;;;26.60;92.70;;;;;;4990101;28;20027;-79
2023/07/06 12:59:36;;;;;;;7.55;2.53;;;26.60;92.40;;;;;;4990060;28;20031;-79
2023/07/06 13:02:38;;;;;;;6.82;2.35;;;26.50;91.80;;;;;;4972362;28;20413;-79
2023/07/06 13:05:24;;;;;;;7.82;3.83;;;26.60;91.00;;;;;;4983375;28;20072;-78